createdAt,value
2016-06-13T00:00:12.778Z,58.29
2016-06-13T00:01:12.766Z,57.62
2016-06-13T00:02:12.738Z,57.9
2016-06-13T00:03:12.740Z,57.04
2016-06-13T00:04:12.727Z,57.42
2016-06-13T00:05:12.684Z,56.94
2016-06-13T00:06:12.687Z,57.23
2016-06-13T00:07:12.675Z,57.52
2016-06-13T00:08:12.645Z,56.94
2016-06-13T00:09:12.634Z,56.94
2016-06-13T00:10:12.621Z,56.74
2016-06-13T00:11:12.609Z,56.94
2016-06-13T00:12:12.596Z,56.68
2016-06-13T00:13:12.584Z,56.58
2016-06-13T00:14:12.571Z,57.04
2016-06-13T00:15:12.542Z,56.56
2016-06-13T00:16:12.545Z,56.84
2016-06-13T00:17:12.534Z,56.39
2016-06-13T00:18:12.568Z,56.58
2016-06-13T00:19:12.492Z,56.68
2016-06-13T00:20:12.480Z,56.58
2016-06-13T00:21:12.468Z,56.68
2016-06-13T00:22:12.455Z,56.58
2016-06-13T00:23:12.442Z,56.68
2016-06-13T00:24:12.431Z,56.58
2016-06-13T00:25:12.417Z,56.87
2016-06-13T00:26:12.420Z,56.68
2016-06-13T00:27:12.392Z,56.68
2016-06-13T00:28:12.379Z,56.87
2016-06-13T00:29:12.368Z,56.77
2016-06-13T00:30:12.354Z,56.58
2016-06-13T00:31:12.341Z,56.68
2016-06-13T00:32:12.330Z,56.87
2016-06-13T00:33:12.333Z,56.96
2016-06-13T00:34:12.305Z,56.77
2016-06-13T00:35:12.276Z,56.87
2016-06-13T00:36:12.264Z,56.48
2016-06-13T00:37:12.267Z,56.77
2016-06-13T00:38:12.238Z,56.39
2016-06-13T00:39:12.241Z,56.96
2016-06-13T00:40:12.214Z,56.96
2016-06-13T00:41:12.044Z,56.68
2016-06-13T00:42:12.188Z,56.87
2016-06-13T00:43:12.176Z,56.68
2016-06-13T00:44:12.164Z,56.68
2016-06-13T00:45:12.150Z,56.68
2016-06-13T00:46:12.138Z,56.58
2016-06-13T00:47:12.125Z,56.77
2016-06-13T00:48:12.113Z,56.77
2016-06-13T00:49:12.101Z,56.58
2016-06-13T00:50:12.088Z,56.68
2016-06-13T00:51:12.075Z,56.87
2016-06-13T00:52:12.063Z,56.58
2016-06-13T00:53:12.050Z,56.77
2016-06-13T00:54:12.038Z,56.68
2016-06-13T00:55:12.009Z,56.96
2016-06-13T00:56:12.013Z,56.96
2016-06-13T00:57:12.001Z,57.06
2016-06-13T00:58:12.035Z,57.16
2016-06-13T00:59:11.960Z,56.77
2016-06-13T01:00:11.947Z,56.77
2016-06-13T01:01:11.950Z,57.16
2016-06-13T01:02:11.937Z,57.16
2016-06-13T01:03:11.909Z,56.96
2016-06-13T01:04:11.897Z,57.16
2016-06-13T01:05:11.885Z,57.06
2016-06-13T01:06:12.074Z,56.96
2016-06-13T01:07:11.859Z,57.16
2016-06-13T01:08:11.847Z,56.96
2016-06-13T01:09:11.833Z,56.77
2016-06-13T01:10:11.821Z,56.39
2016-06-13T01:11:11.839Z,56.58
2016-06-13T01:12:11.797Z,56.29
2016-06-13T01:13:11.784Z,56.58
2016-06-13T01:14:12.161Z,56.58
2016-06-13T01:15:11.884Z,56.29
2016-06-13T01:16:11.824Z,56.96
2016-06-13T01:17:11.733Z,56.68
2016-06-13T01:18:11.736Z,56.96
2016-06-13T01:19:11.708Z,56.96
2016-06-13T01:20:11.696Z,56.48
2016-06-13T01:21:11.683Z,56.77
2016-06-13T01:22:12.109Z,56.48
2016-06-13T01:23:11.659Z,56.58
2016-06-13T01:24:11.645Z,56.58
2016-06-13T01:25:11.617Z,56.48
2016-06-13T01:26:11.620Z,56.58
2016-06-13T01:27:11.608Z,56.68
2016-06-13T01:28:11.596Z,56.39
2016-06-13T01:29:11.567Z,56.48
2016-06-13T01:30:12.117Z,56.68
2016-06-13T01:31:11.558Z,56.58
2016-06-13T01:32:11.529Z,56.48
2016-06-13T01:33:11.517Z,56.39
2016-06-13T01:34:11.521Z,56.48
2016-06-13T01:35:11.492Z,56.2
2016-06-13T01:36:11.479Z,56.77
2016-06-13T01:37:11.467Z,56.29
2016-06-13T01:38:12.111Z,56.58
2016-06-13T01:39:11.442Z,56.58
2016-06-13T01:40:11.428Z,56.2
2016-06-13T01:41:11.417Z,56.48
2016-06-13T01:42:11.404Z,56.29
2016-06-13T01:43:11.392Z,56.48
2016-06-13T01:44:11.379Z,56.48
2016-06-13T01:45:11.367Z,56.29
2016-06-13T01:46:11.401Z,56.1
2016-06-13T01:47:11.341Z,56.29
2016-06-13T01:48:11.328Z,56.1
2016-06-13T01:49:11.316Z,56.58
2016-06-13T01:50:11.304Z,56.29
2016-06-13T01:51:11.291Z,56.2
2016-06-13T01:52:11.278Z,55.9
2016-06-13T01:53:11.265Z,55.81
2016-06-13T01:54:11.394Z,56
2016-06-13T01:55:11.224Z,56
2016-06-13T01:56:11.228Z,55.9
2016-06-13T01:57:11.200Z,56.2
2016-06-13T01:58:11.188Z,56.2
2016-06-13T01:59:11.175Z,55.81
2016-06-13T02:00:11.162Z,55.81
2016-06-13T02:01:11.151Z,55.81
2016-06-13T02:02:11.387Z,56
2016-06-13T02:03:11.124Z,56.2
2016-06-13T02:04:11.113Z,56
2016-06-13T02:05:11.115Z,56.2
2016-06-13T02:06:11.088Z,55.9
2016-06-13T02:07:11.075Z,56.2
2016-06-13T02:08:11.061Z,56.39
2016-06-13T02:09:11.065Z,55.62
2016-06-13T02:10:11.381Z,55.9
2016-06-13T02:11:11.306Z,56
2016-06-13T02:12:11.012Z,55.81
2016-06-13T02:13:10.999Z,55.62
2016-06-13T02:14:11.002Z,55.62
2016-06-13T02:15:10.975Z,55.81
2016-06-13T02:16:10.961Z,55.81
2016-06-13T02:17:11.042Z,56.2
2016-06-13T02:18:11.405Z,55.62
2016-06-13T02:19:10.924Z,56.29
2016-06-13T02:20:10.896Z,55.81
2016-06-13T02:21:10.899Z,55.81
2016-06-13T02:22:10.887Z,55.62
2016-06-13T02:23:10.858Z,56
2016-06-13T02:24:10.861Z,55.62
2016-06-13T02:25:11.052Z,55.81
2016-06-13T02:26:10.836Z,55.52
2016-06-13T02:27:10.808Z,55.71
2016-06-13T02:28:10.811Z,55.9
2016-06-13T02:29:10.784Z,56
2016-06-13T02:30:10.770Z,55.9
2016-06-13T02:31:10.758Z,56
2016-06-13T02:32:10.746Z,56.2
2016-06-13T02:33:11.046Z,56.1
2016-06-13T02:34:10.719Z,56.48
2016-06-13T02:35:10.708Z,56.39
2016-06-13T02:36:10.695Z,56.48
2016-06-13T02:37:10.683Z,56.39
2016-06-13T02:38:10.670Z,56.39
2016-06-13T02:39:10.657Z,56.77
2016-06-13T02:40:10.645Z,56.48
2016-06-13T02:41:11.085Z,56.58
2016-06-13T02:42:10.619Z,56.58
2016-06-13T02:43:10.608Z,56.29
2016-06-13T02:44:10.595Z,56.29
2016-06-13T02:45:10.582Z,56.2
2016-06-13T02:46:10.617Z,55.9
2016-06-13T02:47:10.557Z,56.2
2016-06-13T02:48:10.545Z,56
2016-06-13T02:49:11.234Z,56.2
2016-06-13T02:50:10.518Z,56.2
2016-06-13T02:51:10.507Z,55.71
2016-06-13T02:52:10.494Z,55.9
2016-06-13T02:53:10.466Z,55.9
2016-06-13T02:54:10.469Z,55.9
2016-06-13T02:55:10.457Z,55.9
2016-06-13T02:56:11.178Z,56.2
2016-06-13T02:57:11.072Z,56.29
2016-06-13T02:58:10.404Z,56.29
2016-06-13T02:59:10.391Z,56.29
2016-06-13T03:00:10.394Z,56.39
2016-06-13T03:01:10.381Z,56.58
2016-06-13T03:02:10.353Z,56.48
2016-06-13T03:03:10.356Z,56.2
2016-06-13T03:04:10.328Z,55.9
2016-06-13T03:05:10.362Z,56.39
2016-06-13T03:06:10.303Z,56.2
2016-06-13T03:07:10.290Z,56.1
2016-06-13T03:08:10.279Z,56.1
2016-06-13T03:09:10.265Z,56.39
2016-06-13T03:10:10.252Z,56
2016-06-13T03:11:10.241Z,56.29
2016-06-13T03:12:11.072Z,55.81
2016-06-13T03:13:10.371Z,56
2016-06-13T03:14:10.203Z,56.1
2016-06-13T03:15:10.190Z,56.1
2016-06-13T03:16:10.177Z,55.9
2016-06-13T03:17:10.165Z,56.1
2016-06-13T03:18:10.137Z,56.2
2016-06-13T03:19:10.140Z,55.9
2016-06-13T03:20:10.127Z,56.68
2016-06-13T03:21:10.365Z,56
2016-06-13T03:22:10.086Z,56.48
2016-06-13T03:23:10.074Z,56.39
2016-06-13T03:24:10.077Z,56.68
2016-06-13T03:25:10.065Z,56.1
2016-06-13T03:26:10.067Z,56.48
2016-06-13T03:27:09.904Z,56
2016-06-13T03:28:10.073Z,55.42
2016-06-13T03:29:11.351Z,56.2
2016-06-13T03:30:10.145Z,56.1
2016-06-13T03:31:10.157Z,56.2
2016-06-13T03:32:10.171Z,55.9
2016-06-13T03:33:10.171Z,55.9
2016-06-13T03:34:10.174Z,55.81
2016-06-13T03:35:10.175Z,55.71
2016-06-13T03:36:10.177Z,56.2
2016-06-13T03:37:10.674Z,55.62
2016-06-13T03:38:10.166Z,56.1
2016-06-13T03:39:10.160Z,55.81
2016-06-13T03:40:10.152Z,55.62
2016-06-13T03:41:10.145Z,56.1
2016-06-13T03:42:10.604Z,56.1
2016-06-13T03:43:10.141Z,55.9
2016-06-13T03:44:10.114Z,55.81
2016-06-13T03:45:10.104Z,56.1
2016-06-13T03:46:09.937Z,55.71
2016-06-13T03:47:10.083Z,56.1
2016-06-13T03:48:10.071Z,56.1
2016-06-13T03:49:10.058Z,55.52
2016-06-13T03:50:10.031Z,56.1
2016-06-13T03:51:10.035Z,56.1
2016-06-13T03:52:09.867Z,56.39
2016-06-13T03:53:09.994Z,56.39
2016-06-13T03:54:09.998Z,56.1
2016-06-13T03:55:09.969Z,55.81
2016-06-13T03:56:09.973Z,55.62
2016-06-13T03:57:09.788Z,55.9
2016-06-13T03:58:09.948Z,55.62
2016-06-13T03:59:09.919Z,56
2016-06-13T04:00:09.751Z,55.9
2016-06-13T04:01:09.894Z,55.81
2016-06-13T04:02:09.882Z,55.71
2016-06-13T04:03:09.870Z,55.71
2016-06-13T04:04:09.856Z,55.9
2016-06-13T04:05:09.845Z,55.81
2016-06-13T04:06:09.831Z,55.9
2016-06-13T04:07:09.819Z,56.48
2016-06-13T04:08:09.807Z,56.39
2016-06-13T04:09:09.793Z,56.58
2016-06-13T04:10:09.782Z,56.39
2016-06-13T04:11:09.769Z,56.48
2016-06-13T04:12:09.756Z,56.39
2016-06-13T04:13:09.744Z,56.48
2016-06-13T04:14:09.731Z,56.2
2016-06-13T04:15:09.703Z,56.1
2016-06-13T04:16:09.707Z,56.29
2016-06-13T04:17:09.678Z,56.48
2016-06-13T04:18:09.681Z,56.48
2016-06-13T04:19:09.669Z,56.2
2016-06-13T04:20:09.641Z,56.1
2016-06-13T04:21:09.643Z,56.1
2016-06-13T04:22:09.630Z,55.9
2016-06-13T04:23:09.617Z,56
2016-06-13T04:24:09.590Z,55.9
2016-06-13T04:25:09.578Z,56.2
2016-06-13T04:26:09.564Z,55.9
2016-06-13T04:27:09.427Z,56.2
2016-06-13T04:28:09.540Z,56.2
2016-06-13T04:29:09.527Z,55.9
2016-06-13T04:30:09.514Z,55.71
2016-06-13T04:31:09.503Z,56.1
2016-06-13T04:32:09.489Z,56.2
2016-06-13T04:33:09.477Z,56.1
2016-06-13T04:34:09.464Z,55.9
2016-06-13T04:35:09.451Z,56.1
2016-06-13T04:36:09.440Z,55.9
2016-06-13T04:37:09.426Z,56.29
2016-06-13T04:38:09.414Z,56.39
2016-06-13T04:39:09.402Z,56.1
2016-06-13T04:40:09.389Z,55.9
2016-06-13T04:41:09.377Z,55.9
2016-06-13T04:42:09.364Z,55.81
2016-06-13T04:43:09.195Z,55.9
2016-06-13T04:44:09.340Z,55.71
2016-06-13T04:45:09.326Z,55.81
2016-06-13T04:46:09.298Z,55.71
2016-06-13T04:47:09.302Z,55.81
2016-06-13T04:48:09.288Z,56
2016-06-13T04:49:09.276Z,55.9
2016-06-13T04:50:09.247Z,55.62
2016-06-13T04:51:09.251Z,55.9
2016-06-13T04:52:09.239Z,56.58
2016-06-13T04:53:09.226Z,56.96
2016-06-13T04:54:09.213Z,56.77
2016-06-13T04:55:09.201Z,56.68
2016-06-13T04:56:09.188Z,56.96
2016-06-13T04:57:09.380Z,56.58
2016-06-13T04:58:09.148Z,56.58
2016-06-13T04:59:09.135Z,56.96
2016-06-13T05:00:09.122Z,56.77
2016-06-13T05:01:09.110Z,57.06
2016-06-13T05:02:09.113Z,57.35
2016-06-13T05:03:09.085Z,57.64
2016-06-13T05:04:09.073Z,57.14
2016-06-13T05:05:09.059Z,57.14
2016-06-13T05:06:09.047Z,56.84
2016-06-13T05:07:09.035Z,57.04
2016-06-13T05:08:09.022Z,56.87
2016-06-13T05:09:09.009Z,56.68
2016-06-13T05:10:08.997Z,56.58
2016-06-13T05:11:08.984Z,56.58
2016-06-13T05:12:08.972Z,56.58
2016-06-13T05:13:08.975Z,56.58
2016-06-13T05:14:08.947Z,56.58
2016-06-13T05:15:08.935Z,56.77
2016-06-13T05:16:08.921Z,56.58
2016-06-13T05:17:08.909Z,56.68
2016-06-13T05:18:08.881Z,56.58
2016-06-13T05:19:08.884Z,56.58
2016-06-13T05:20:08.872Z,56.77
2016-06-13T05:21:08.859Z,56.58
2016-06-13T05:22:08.846Z,56.68
2016-06-13T05:23:08.818Z,56.58
2016-06-13T05:24:08.821Z,56.58
2016-06-13T05:25:08.652Z,56.77
2016-06-13T05:26:08.797Z,57.06
2016-06-13T05:27:08.784Z,56.58
2016-06-13T05:28:08.771Z,56.87
2016-06-13T05:29:08.742Z,56.77
2016-06-13T05:30:08.731Z,56.68
2016-06-13T05:31:08.718Z,56.68
2016-06-13T05:32:08.721Z,56.87
2016-06-13T05:33:08.693Z,56.96
2016-06-13T05:34:08.680Z,57.06
2016-06-13T05:35:08.668Z,57.16
2016-06-13T05:36:08.655Z,56.39
2016-06-13T05:37:08.892Z,56.58
2016-06-13T05:38:08.630Z,56.96
2016-06-13T05:39:08.617Z,56.96
2016-06-13T05:40:08.604Z,56.87
2016-06-13T05:41:08.592Z,56.87
2016-06-13T05:42:08.580Z,56.77
2016-06-13T05:43:08.568Z,56.68
2016-06-13T05:44:08.555Z,56.77
2016-06-13T05:45:08.777Z,56.77
2016-06-13T05:46:08.530Z,56.96
2016-06-13T05:47:08.517Z,56.58
2016-06-13T05:48:08.489Z,56.87
2016-06-13T05:49:08.492Z,56.68
2016-06-13T05:50:08.464Z,56.58
2016-06-13T05:51:08.451Z,56.77
2016-06-13T05:52:08.438Z,56.77
2016-06-13T05:53:08.785Z,56.77
2016-06-13T05:54:08.414Z,56.48
2016-06-13T05:55:08.417Z,56.87
2016-06-13T05:56:08.388Z,56.96
2016-06-13T05:57:08.392Z,56.58
2016-06-13T05:58:08.379Z,56.58
2016-06-13T05:59:08.351Z,56.58
2016-06-13T06:00:08.354Z,56.68
2016-06-13T06:01:08.825Z,56.58
2016-06-13T06:02:08.313Z,56.39
2016-06-13T06:03:08.300Z,56.58
2016-06-13T06:04:08.288Z,56.58
2016-06-13T06:05:08.275Z,56.58
2016-06-13T06:06:08.264Z,56.68
2016-06-13T06:07:08.250Z,56.77
2016-06-13T06:08:08.237Z,56.58
2016-06-13T06:09:08.975Z,56.68
2016-06-13T06:10:08.213Z,56.68
2016-06-13T06:11:08.200Z,56.39
2016-06-13T06:12:08.187Z,56.39
2016-06-13T06:13:08.160Z,56.68
2016-06-13T06:14:08.163Z,56.48
2016-06-13T06:15:08.134Z,56.68
2016-06-13T06:16:08.153Z,56.96
2016-06-13T06:17:08.828Z,56.87
2016-06-13T06:18:08.112Z,56.58
2016-06-13T06:19:07.943Z,56.87
2016-06-13T06:20:08.071Z,56.39
2016-06-13T06:21:08.059Z,56.58
2016-06-13T06:22:08.046Z,56.68
2016-06-13T06:23:08.034Z,56.77
2016-06-13T06:24:08.037Z,56.77
2016-06-13T06:25:08.117Z,56.58
2016-06-13T06:26:07.996Z,56.77
2016-06-13T06:27:08.515Z,57.06
2016-06-13T06:28:08.299Z,56.87
2016-06-13T06:29:07.959Z,56.77
2016-06-13T06:30:07.946Z,56.68
2016-06-13T06:31:07.933Z,56.96
2016-06-13T06:32:07.921Z,56.58
2016-06-13T06:33:08.158Z,57.06
2016-06-13T06:34:07.896Z,58.22
2016-06-13T06:35:07.884Z,60.13
2016-06-13T06:36:07.871Z,60.77
2016-06-13T06:37:07.858Z,60.77
2016-06-13T06:38:07.845Z,61.64
2016-06-13T06:39:07.833Z,61.93
2016-06-13T06:40:07.821Z,61.74
2016-06-13T06:41:08.105Z,61.54
2016-06-13T06:42:07.780Z,61.16
2016-06-13T06:43:07.767Z,60.1
2016-06-13T06:44:07.755Z,59.74
2016-06-13T06:45:07.742Z,58.97
2016-06-13T06:46:07.729Z,58.58
2016-06-13T06:47:07.718Z,58.58
2016-06-13T06:48:07.704Z,58.1
2016-06-13T06:49:08.146Z,58.48
2016-06-13T06:50:07.679Z,58.32
2016-06-13T06:51:07.667Z,58.19
2016-06-13T06:52:07.655Z,57.84
2016-06-13T06:53:07.642Z,57.74
2016-06-13T06:54:07.629Z,57.93
2016-06-13T06:55:07.616Z,57.93
2016-06-13T06:56:07.823Z,57.84
2016-06-13T06:57:08.373Z,57.74
2016-06-13T06:58:07.579Z,58.03
2016-06-13T06:59:07.566Z,58.12
2016-06-13T07:00:07.554Z,58.42
2016-06-13T07:01:07.542Z,57.84
2016-06-13T07:02:07.528Z,58.22
2016-06-13T07:03:07.500Z,57.64
2016-06-13T07:04:07.754Z,57.54
2016-06-13T07:05:07.491Z,58.42
2016-06-13T07:06:07.479Z,57.54
2016-06-13T07:07:07.451Z,57.45
2016-06-13T07:08:07.438Z,57.64
2016-06-13T07:09:07.425Z,57.64
2016-06-13T07:10:07.256Z,57.74
2016-06-13T07:11:07.400Z,57.84
2016-06-13T07:12:07.934Z,57.64
2016-06-13T07:13:07.375Z,57.54
2016-06-13T07:14:07.363Z,57.64
2016-06-13T07:15:07.350Z,57.74
2016-06-13T07:16:07.338Z,57.45
2016-06-13T07:17:07.325Z,57.64
2016-06-13T07:18:07.313Z,57.84
2016-06-13T07:19:07.300Z,57.54
2016-06-13T07:20:07.786Z,57.74
2016-06-13T07:21:07.290Z,57.06
2016-06-13T07:22:07.262Z,57.74
2016-06-13T07:23:07.250Z,56.96
2016-06-13T07:24:07.237Z,57.16
2016-06-13T07:25:07.225Z,57.35
2016-06-13T07:26:07.196Z,57.45
2016-06-13T07:27:07.762Z,57.35
2016-06-13T07:28:07.734Z,57.35
2016-06-13T07:29:07.175Z,57.26
2016-06-13T07:30:07.161Z,57.16
2016-06-13T07:31:07.149Z,57.26
2016-06-13T07:32:06.964Z,57.45
2016-06-13T07:33:07.109Z,57.54
2016-06-13T07:34:07.111Z,57.26
2016-06-13T07:35:07.083Z,57.35
2016-06-13T07:36:07.086Z,57.26
2016-06-13T07:37:07.058Z,57.26
2016-06-13T07:38:07.061Z,57.93
2016-06-13T07:39:07.049Z,57.16
2016-06-13T07:40:07.020Z,57.06
2016-06-13T07:41:07.009Z,57.45
2016-06-13T07:42:07.183Z,57.45
2016-06-13T07:43:06.983Z,57.35
2016-06-13T07:44:07.127Z,57.16
2016-06-13T07:45:06.957Z,57.54
2016-06-13T07:46:06.960Z,57.26
2016-06-13T07:47:06.933Z,57.84
2016-06-13T07:48:06.920Z,57.74
2016-06-13T07:49:06.908Z,57.84
2016-06-13T07:50:06.895Z,57.54
2016-06-13T07:51:06.882Z,57.64
2016-06-13T07:52:07.917Z,57.64
2016-06-13T07:53:06.858Z,57.54
2016-06-13T07:54:06.845Z,57.64
2016-06-13T07:55:06.816Z,57.06
2016-06-13T07:56:06.805Z,57.64
2016-06-13T07:57:06.792Z,57.74
2016-06-13T07:58:07.200Z,57.45
2016-06-13T07:59:06.767Z,57.06
2016-06-13T08:00:07.114Z,57.84
2016-06-13T08:01:06.742Z,57.84
2016-06-13T08:02:06.573Z,58.22
2016-06-13T08:03:06.716Z,58.12
2016-06-13T08:04:06.719Z,58.12
2016-06-13T08:05:06.691Z,58.42
2016-06-13T08:06:06.678Z,58.03
2016-06-13T08:07:06.510Z,58.03
2016-06-13T08:08:07.106Z,58.22
2016-06-13T08:09:06.642Z,58.22
2016-06-13T08:10:06.706Z,57.74
2016-06-13T08:11:06.615Z,57.84
2016-06-13T08:12:06.604Z,58.03
2016-06-13T08:13:07.107Z,57.54
2016-06-13T08:14:06.577Z,57.84
2016-06-13T08:15:06.566Z,57.84
2016-06-13T08:16:06.552Z,57.64
2016-06-13T08:17:06.384Z,57.64
2016-06-13T08:18:06.528Z,57.45
2016-06-13T08:19:06.515Z,57.45
2016-06-13T08:20:06.503Z,57.45
2016-06-13T08:21:06.475Z,57.74
2016-06-13T08:22:06.462Z,57.74
2016-06-13T08:23:06.450Z,57.64
2016-06-13T08:24:06.437Z,57.74
2016-06-13T08:25:06.424Z,57.54
2016-06-13T08:26:06.412Z,57.74
2016-06-13T08:27:06.415Z,57.74
2016-06-13T08:28:06.652Z,57.74
2016-06-13T08:29:06.374Z,57.74
2016-06-13T08:30:06.362Z,57.74
2016-06-13T08:31:06.349Z,57.74
2016-06-13T08:32:06.337Z,57.16
2016-06-13T08:33:06.324Z,57.84
2016-06-13T08:34:06.311Z,57.74
2016-06-13T08:35:06.299Z,57.64
2016-06-13T08:36:06.287Z,57.64
2016-06-13T08:37:06.274Z,57.74
2016-06-13T08:38:06.262Z,57.06
2016-06-13T08:39:06.264Z,56.87
2016-06-13T08:40:06.221Z,56.87
2016-06-13T08:41:06.224Z,56.99
2016-06-13T08:42:06.195Z,56.61
2016-06-13T08:43:06.199Z,57.09
2016-06-13T08:44:06.186Z,57.35
2016-06-13T08:45:06.173Z,57.38
2016-06-13T08:46:06.145Z,57.45
2016-06-13T08:47:06.133Z,57.16
2016-06-13T08:48:06.136Z,57.64
2016-06-13T08:49:06.108Z,57.64
2016-06-13T08:50:06.110Z,57.54
2016-06-13T08:51:06.082Z,57.16
2016-06-13T08:52:05.914Z,57.35
2016-06-13T08:53:06.058Z,57.45
2016-06-13T08:54:06.044Z,57.35
2016-06-13T08:55:06.033Z,57.38
2016-06-13T08:56:06.020Z,56.96
2016-06-13T08:57:06.007Z,56.99
2016-06-13T08:58:06.635Z,57.38
2016-06-13T08:59:05.998Z,57.16
2016-06-13T09:00:05.969Z,57.26
2016-06-13T09:01:05.958Z,56.96
2016-06-13T09:02:05.944Z,56.87
2016-06-13T09:03:05.932Z,56.9
2016-06-13T09:04:05.919Z,56.39
2016-06-13T09:05:05.907Z,56.58
2016-06-13T09:06:05.894Z,56.87
2016-06-13T09:07:05.882Z,56.77
2016-06-13T09:08:05.869Z,56.87
2016-06-13T09:09:05.857Z,56.99
2016-06-13T09:10:05.844Z,56.96
2016-06-13T09:11:05.831Z,56.96
2016-06-13T09:12:05.803Z,56.68
2016-06-13T09:13:05.806Z,56.9
2016-06-13T09:14:05.794Z,56.68
2016-06-13T09:15:05.781Z,56.77
2016-06-13T09:16:05.754Z,57.06
2016-06-13T09:17:05.740Z,56.71
2016-06-13T09:18:05.728Z,56.96
2016-06-13T09:19:05.716Z,56.96
2016-06-13T09:20:05.703Z,56.68
2016-06-13T09:21:05.690Z,56.71
2016-06-13T09:22:05.678Z,56.71
2016-06-13T09:23:05.665Z,56.99
2016-06-13T09:24:05.652Z,56.96
2016-06-13T09:25:05.640Z,56.8
2016-06-13T09:26:05.628Z,56.77
2016-06-13T09:27:05.459Z,56.68
2016-06-13T09:28:06.446Z,56.68
2016-06-13T09:29:05.591Z,57.09
2016-06-13T09:30:05.577Z,57.06
2016-06-13T09:31:05.549Z,57.19
2016-06-13T09:32:05.553Z,56.68
2016-06-13T09:33:05.540Z,57.09
2016-06-13T09:34:05.528Z,56.71
2016-06-13T09:35:05.499Z,56.96
2016-06-13T09:36:05.501Z,57.16
2016-06-13T09:37:05.474Z,57.06
2016-06-13T09:38:05.477Z,56.96
2016-06-13T09:39:05.464Z,57.16
2016-06-13T09:40:05.436Z,56.8
2016-06-13T09:41:05.424Z,56.8
2016-06-13T09:42:05.427Z,56.87
2016-06-13T09:43:05.415Z,57.09
2016-06-13T09:44:05.387Z,56.77
2016-06-13T09:45:05.389Z,56.96
2016-06-13T09:46:05.360Z,57.09
2016-06-13T09:47:05.349Z,56.39
2016-06-13T09:48:05.352Z,57.19
2016-06-13T09:49:05.323Z,56.41
2016-06-13T09:50:05.311Z,56.58
2016-06-13T09:51:05.298Z,56.58
2016-06-13T09:52:05.286Z,56.51
2016-06-13T09:53:05.273Z,56.77
2016-06-13T09:54:05.260Z,56.68
2016-06-13T09:55:05.249Z,56.77
2016-06-13T09:56:05.235Z,56.61
2016-06-13T09:57:05.223Z,56.48
2016-06-13T09:58:05.070Z,56.13
2016-06-13T09:59:05.197Z,56.61
2016-06-13T10:00:05.185Z,56.13
2016-06-13T10:01:05.172Z,55.83
2016-06-13T10:02:05.160Z,56.13
2016-06-13T10:03:05.148Z,56.41
2016-06-13T10:04:05.134Z,57.54
2016-06-13T10:05:05.123Z,58.42
2016-06-13T10:06:05.110Z,58.77
2016-06-13T10:07:04.941Z,58.77
2016-06-13T10:08:05.132Z,58.1
2016-06-13T10:09:05.089Z,57.81
2016-06-13T10:10:05.059Z,57.54
2016-06-13T10:11:05.047Z,57.35
2016-06-13T10:12:05.035Z,56.87
2016-06-13T10:13:04.866Z,56.96
2016-06-13T10:14:05.025Z,56.68
2016-06-13T10:15:04.856Z,56.51
2016-06-13T10:16:05.188Z,56.71
2016-06-13T10:17:04.972Z,57.19
2016-06-13T10:18:04.959Z,56.61
2016-06-13T10:19:04.930Z,56.13
2016-06-13T10:20:04.919Z,56.22
2016-06-13T10:21:04.906Z,56.13
2016-06-13T10:22:04.909Z,56.03
2016-06-13T10:23:04.896Z,56.61
2016-06-13T10:24:05.135Z,56.41
2016-06-13T10:25:04.871Z,56.41
2016-06-13T10:26:04.858Z,56.22
2016-06-13T10:27:04.846Z,56.51
2016-06-13T10:28:04.662Z,56.71
2016-06-13T10:29:05.243Z,56.71
2016-06-13T10:30:04.792Z,56.61
2016-06-13T10:31:04.781Z,56.71
2016-06-13T10:32:05.221Z,56.71
2016-06-13T10:33:04.755Z,56.51
2016-06-13T10:34:04.743Z,56.13
2016-06-13T10:35:04.731Z,56.71
2016-06-13T10:36:04.733Z,56.22
2016-06-13T10:37:04.736Z,56.22
2016-06-13T10:38:04.692Z,56.51
2016-06-13T10:39:04.680Z,56.22
2016-06-13T10:40:05.323Z,56.03
2016-06-13T10:41:04.655Z,55.93
2016-06-13T10:42:05.252Z,55.93
2016-06-13T10:43:04.911Z,56.51
2016-06-13T10:44:04.632Z,55.93
2016-06-13T10:45:04.605Z,55.83
2016-06-13T10:46:04.592Z,56.13
2016-06-13T10:47:04.580Z,56.03
2016-06-13T10:48:05.208Z,56.22
2016-06-13T10:49:04.554Z,56.03
2016-06-13T10:50:04.542Z,56.22
2016-06-13T10:51:04.514Z,55.65
2016-06-13T10:52:04.501Z,55.83
2016-06-13T10:53:04.488Z,55.83
2016-06-13T10:54:04.476Z,55.83
2016-06-13T10:55:04.480Z,55.93
2016-06-13T10:56:04.467Z,55.93
2016-06-13T10:57:04.454Z,56.03
2016-06-13T10:58:04.442Z,55.93
2016-06-13T10:59:04.429Z,55.93
2016-06-13T11:00:04.401Z,56.03
2016-06-13T11:01:04.388Z,55.93
2016-06-13T11:02:04.376Z,55.83
2016-06-13T11:03:04.379Z,56.41
2016-06-13T11:04:05.257Z,56.9
2016-06-13T11:05:04.338Z,56.9
2016-06-13T11:06:04.326Z,56.99
2016-06-13T11:07:04.314Z,57.87
2016-06-13T11:08:04.301Z,57.87
2016-06-13T11:09:04.304Z,57.87
2016-06-13T11:10:04.276Z,58.25
2016-06-13T11:11:04.279Z,57.77
2016-06-13T11:12:04.500Z,57.67
2016-06-13T11:13:04.847Z,57.74
2016-06-13T11:14:04.241Z,58.22
2016-06-13T11:15:04.213Z,57.96
2016-06-13T11:16:04.216Z,58.35
2016-06-13T11:17:04.187Z,57.74
2016-06-13T11:18:04.175Z,57.64
2016-06-13T11:19:04.256Z,58.61
2016-06-13T11:20:04.557Z,58.15
2016-06-13T11:21:04.138Z,58.06
2016-06-13T11:22:04.125Z,58.15
2016-06-13T11:23:04.112Z,58.35
2016-06-13T11:24:04.100Z,57.87
2016-06-13T11:25:04.087Z,58.35
2016-06-13T11:26:04.075Z,58.06
2016-06-13T11:27:04.203Z,58.35
2016-06-13T11:28:04.690Z,57.77
2016-06-13T11:29:04.787Z,58.15
2016-06-13T11:30:04.587Z,57.67
2016-06-13T11:31:04.012Z,57.67
2016-06-13T11:32:03.999Z,57.09
2016-06-13T11:33:03.971Z,57.09
2016-06-13T11:34:03.975Z,57.96
2016-06-13T11:35:04.165Z,57.87
2016-06-13T11:36:03.949Z,57.48
2016-06-13T11:37:03.937Z,57.19
2016-06-13T11:38:03.940Z,57.19
2016-06-13T11:39:03.912Z,56.61
2016-06-13T11:40:03.899Z,56.61
2016-06-13T11:41:03.886Z,56.61
2016-06-13T11:42:03.874Z,56.61
2016-06-13T11:43:04.877Z,56.99
2016-06-13T11:44:03.865Z,56.99
2016-06-13T11:45:03.821Z,56.9
2016-06-13T11:46:03.667Z,57.06
2016-06-13T11:47:03.811Z,56.9
2016-06-13T11:48:03.798Z,56.71
2016-06-13T11:49:03.610Z,56.51
2016-06-13T11:50:03.754Z,56.41
2016-06-13T11:51:04.214Z,56.71
2016-06-13T11:52:03.745Z,56.03
2016-06-13T11:53:03.748Z,56.71
2016-06-13T11:54:03.564Z,56.61
2016-06-13T11:55:03.692Z,56.71
2016-06-13T11:56:03.679Z,56.71
2016-06-13T11:57:03.667Z,56.61
2016-06-13T11:58:03.655Z,55.93
2016-06-13T11:59:04.048Z,55.93
2016-06-13T12:00:03.629Z,57.77
2016-06-13T12:01:03.632Z,59
2016-06-13T12:02:03.620Z,59.58
2016-06-13T12:03:03.608Z,59.86
2016-06-13T12:04:03.594Z,60.31
2016-06-13T12:05:03.567Z,59.64
2016-06-13T12:06:03.553Z,59.09
2016-06-13T12:07:04.494Z,58.7
2016-06-13T12:08:03.529Z,58.06
2016-06-13T12:09:03.516Z,58.06
2016-06-13T12:10:03.504Z,58.35
2016-06-13T12:11:03.507Z,57.67
2016-06-13T12:12:03.478Z,57.38
2016-06-13T12:13:03.466Z,57.38
2016-06-13T12:14:03.422Z,57.48
2016-06-13T12:15:04.409Z,57.29
2016-06-13T12:16:03.429Z,57.03
2016-06-13T12:17:03.431Z,57.03
2016-06-13T12:18:03.403Z,57.03
2016-06-13T12:19:03.391Z,57.21
2016-06-13T12:20:03.394Z,57.21
2016-06-13T12:21:03.350Z,57.12
2016-06-13T12:22:03.353Z,57.12
2016-06-13T12:23:03.544Z,57.12
2016-06-13T12:24:03.328Z,57.51
2016-06-13T12:25:03.159Z,57.6
2016-06-13T12:26:03.304Z,57.12
2016-06-13T12:27:03.290Z,57.12
2016-06-13T12:28:03.293Z,57.7
2016-06-13T12:29:03.109Z,57.7
2016-06-13T12:30:03.253Z,57.6
2016-06-13T12:31:03.553Z,57.21
2016-06-13T12:32:03.227Z,57.51
2016-06-13T12:33:03.215Z,57.03
2016-06-13T12:34:03.218Z,56.93
2016-06-13T12:35:03.262Z,58.28
2016-06-13T12:36:03.290Z,57.6
2016-06-13T12:37:03.146Z,57.99
2016-06-13T12:38:03.346Z,56.93
2016-06-13T12:39:04.791Z,57.99
2016-06-13T12:40:03.371Z,58.09
2016-06-13T12:41:03.358Z,57.03
2016-06-13T12:42:03.361Z,57.51
2016-06-13T12:43:03.363Z,57.31
2016-06-13T12:44:03.889Z,57.41
2016-06-13T12:45:03.350Z,57.41
2016-06-13T12:46:03.342Z,57.7
2016-06-13T12:47:03.881Z,57.21
2016-06-13T12:48:03.327Z,56.63
2016-06-13T12:49:03.302Z,56.73
2016-06-13T12:50:03.322Z,56.73
2016-06-13T12:51:03.312Z,56.73
2016-06-13T12:52:03.285Z,56.63
2016-06-13T12:53:03.134Z,56.63
2016-06-13T12:54:03.263Z,57.03
2016-06-13T12:55:03.251Z,56.45
2016-06-13T12:56:03.240Z,56.83
2016-06-13T12:57:03.227Z,56.54